createdAt,value
2024-03-07T00:03:20.493Z,26.48
2024-03-07T00:08:40.969Z,28.10
2024-03-07T00:14:01.873Z,26.33
2024-03-07T00:19:23.107Z,27.65
2024-03-07T00:24:44.085Z,32.92
2024-03-07T00:30:06.568Z,32.10
2024-03-07T00:35:27.214Z,30.98
2024-03-07T00:40:48.023Z,27.90
2024-03-07T00:46:08.709Z,29.08
2024-03-07T00:51:30.587Z,26.25
2024-03-07T00:56:51.492Z,30.92
2024-03-07T01:02:12.209Z,33.90
2024-03-07T01:07:32.837Z,35.13
2024-03-07T01:12:54.653Z,31.27
2024-03-07T01:18:15.733Z,24.35
2024-03-07T01:23:36.292Z,31.30
2024-03-07T01:29:00.361Z,46.03
2024-03-07T01:34:21.067Z,29.75
2024-03-07T01:39:41.661Z,31.08
2024-03-07T01:45:02.372Z,34.00
2024-03-07T01:50:23.132Z,35.47
2024-03-07T01:55:45.426Z,36.75
2024-03-07T02:01:06.238Z,26.38
2024-03-07T02:06:27.083Z,27.70
2024-03-07T02:11:50.898Z,32.38
2024-03-07T02:22:32.344Z,26.08
2024-03-07T02:27:52.959Z,27.15
2024-03-07T02:33:13.759Z,24.67
2024-03-07T02:38:35.704Z,19.77
2024-03-07T02:43:56.886Z,30.52
2024-03-07T02:49:17.543Z,24.13
2024-03-07T02:54:38.401Z,32.08
2024-03-07T02:59:59.015Z,28.88
2024-03-07T03:05:21.030Z,29.42
2024-03-07T03:10:42.203Z,21.10
2024-03-07T03:16:05.994Z,19.98
2024-03-07T03:21:26.883Z,27.75
2024-03-07T03:26:47.331Z,29.85
2024-03-07T03:32:08.567Z,24.10
2024-03-07T03:37:28.919Z,27.33
2024-03-07T03:42:49.916Z,26.35
2024-03-07T03:48:10.520Z,27.35
2024-03-07T03:53:31.191Z,22.48
2024-03-07T03:58:51.824Z,41.33
2024-03-07T04:04:12.343Z,28.38
2024-03-07T04:09:32.788Z,28.38
2024-03-07T04:14:55.913Z,35.83
2024-03-07T04:20:19.090Z,34.92
2024-03-07T04:25:41.156Z,35.30
2024-03-07T04:31:01.913Z,35.55
2024-03-07T04:36:22.419Z,28.80
2024-03-07T04:41:43.059Z,30.13
2024-03-07T04:47:04.926Z,43.35
2024-03-07T04:52:25.464Z,27.00
2024-03-07T04:57:46.150Z,31.67
2024-03-07T05:03:06.653Z,27.88
2024-03-07T05:08:27.666Z,27.13
2024-03-07T05:13:49.706Z,25.23
2024-03-07T05:19:10.528Z,25.20
2024-03-07T05:24:30.932Z,20.92
2024-03-07T05:29:51.845Z,13.80
2024-03-07T05:35:12.819Z,17.55
2024-03-07T05:40:34.340Z,14.70
2024-03-07T05:45:55.395Z,12.48
2024-03-07T05:51:16.009Z,10.48
2024-03-07T05:56:37.229Z,13.70
2024-03-07T06:01:57.773Z,9.50
2024-03-07T06:07:36.908Z,10.40
2024-03-07T06:13:05.865Z,12.45
2024-03-07T06:18:32.640Z,11.37
2024-03-07T06:24:00.381Z,10.70
2024-03-07T06:29:21.039Z,8.65
2024-03-07T06:34:41.727Z,12.63
2024-03-07T06:40:07.205Z,14.45
2024-03-07T06:45:27.577Z,12.20
2024-03-07T06:50:47.996Z,11.70
2024-03-07T06:56:09.003Z,13.15
2024-03-07T07:01:30.560Z,11.07
2024-03-07T07:06:50.991Z,13.98
2024-03-07T07:12:12.267Z,9.60
2024-03-07T07:17:32.948Z,13.82
2024-03-07T07:22:54.262Z,10.70
2024-03-07T07:28:14.722Z,12.00
2024-03-07T07:33:35.506Z,10.73
2024-03-07T07:38:55.972Z,14.52
2024-03-07T07:44:17.213Z,9.43
2024-03-07T07:49:39.594Z,9.70
2024-03-07T07:55:00.745Z,14.50
2024-03-07T08:00:29.628Z,12.13
2024-03-07T08:05:50.720Z,9.18
2024-03-07T08:11:13.015Z,10.23
2024-03-07T08:16:34.340Z,22.48
2024-03-07T08:21:55.237Z,12.02
2024-03-07T08:27:15.641Z,7.25
2024-03-07T08:32:39.341Z,9.60
2024-03-07T08:37:59.828Z,6.93
2024-03-07T08:43:20.359Z,8.23
2024-03-07T08:48:41.260Z,10.10
2024-03-07T08:54:02.055Z,16.10
2024-03-07T08:59:22.634Z,7.63
2024-03-07T09:04:43.121Z,11.05
2024-03-07T09:10:05.113Z,8.57
2024-03-07T09:15:25.954Z,9.48
2024-03-07T09:20:46.758Z,9.48
2024-03-07T09:26:08.432Z,11.65
2024-03-07T09:31:28.914Z,8.50
2024-03-07T09:36:50.053Z,23.85
2024-03-07T09:42:11.006Z,25.13
2024-03-07T09:47:31.989Z,25.33
2024-03-07T09:52:55.121Z,23.88
2024-03-07T09:58:20.972Z,10.80
2024-03-07T10:03:45.765Z,17.98
2024-03-07T10:14:27.744Z,10.80
2024-03-07T10:19:50.061Z,17.05
2024-03-07T10:25:11.698Z,12.52
2024-03-07T10:30:40.981Z,13.50
2024-03-07T10:36:02.813Z,13.30
2024-03-07T10:41:28.941Z,10.90
2024-03-07T10:46:54.103Z,10.90
2024-03-07T10:52:35.579Z,9.52
2024-03-07T10:58:21.261Z,13.82
2024-03-07T11:03:43.649Z,10.05
2024-03-07T11:09:11.708Z,10.77
2024-03-07T11:14:34.728Z,9.57
2024-03-07T11:19:55.254Z,9.35
2024-03-07T11:25:18.416Z,10.80
2024-03-07T11:30:39.927Z,14.73
2024-03-07T11:36:02.721Z,15.85
2024-03-07T11:41:23.863Z,21.75
2024-03-07T11:46:44.646Z,10.48
2024-03-07T11:52:05.772Z,14.70
2024-03-07T11:57:33.669Z,13.35
2024-03-07T12:02:55.566Z,10.70
2024-03-07T12:08:16.244Z,12.52
2024-03-07T12:13:37.257Z,15.63
2024-03-07T12:18:58.242Z,17.85
2024-03-07T12:24:19.176Z,14.60
2024-03-07T12:29:43.447Z,13.07
2024-03-07T12:35:05.810Z,15.48
2024-03-07T12:40:30.247Z,16.33
2024-03-07T12:45:52.680Z,17.38
2024-03-07T12:51:18.301Z,22.13
2024-03-07T12:56:40.529Z,18.42
2024-03-07T13:02:01.224Z,22.15
2024-03-07T13:07:21.824Z,18.85
2024-03-07T13:12:46.498Z,46.13
2024-03-07T13:18:08.611Z,20.48
2024-03-07T13:23:29.531Z,25.13
2024-03-07T13:28:52.155Z,35.58
2024-03-07T13:34:16.027Z,30.10
2024-03-07T13:39:37.197Z,21.38
2024-03-07T13:44:57.974Z,16.85
2024-03-07T13:50:35.669Z,24.52
2024-03-07T13:56:15.950Z,18.95
2024-03-07T14:02:12.431Z,23.45
2024-03-07T14:08:11.191Z,24.10
2024-03-07T14:13:41.122Z,16.83
2024-03-07T14:19:30.266Z,18.15
2024-03-07T14:24:54.362Z,15.95
2024-03-07T14:36:11.265Z,40.63
2024-03-07T14:41:50.022Z,23.33
2024-03-07T14:47:12.140Z,19.35
2024-03-07T14:52:32.910Z,19.85
2024-03-07T14:57:53.426Z,19.30
2024-03-07T15:03:19.794Z,15.35
2024-03-07T15:08:42.097Z,17.38
2024-03-07T15:14:02.594Z,15.15
2024-03-07T15:19:24.089Z,15.25
2024-03-07T15:24:44.606Z,15.65
2024-03-07T15:30:12.045Z,14.52
2024-03-07T15:35:33.964Z,14.13
2024-03-07T15:41:03.561Z,18.50
2024-03-07T15:46:24.080Z,15.40
2024-03-07T15:51:46.813Z,15.50
2024-03-07T15:57:07.533Z,20.60
2024-03-07T16:02:27.755Z,16.98
2024-03-07T16:07:48.367Z,17.10
2024-03-07T16:13:10.738Z,18.88
2024-03-07T16:18:31.515Z,16.75
2024-03-07T16:23:53.565Z,22.58
2024-03-07T16:29:14.397Z,24.88
2024-03-07T16:34:38.058Z,16.48
2024-03-07T16:39:58.774Z,18.07
2024-03-07T16:45:21.314Z,18.13
2024-03-07T16:50:42.627Z,21.38
2024-03-07T16:56:05.078Z,23.17
2024-03-07T17:01:25.727Z,18.15
2024-03-07T17:06:46.292Z,23.23
2024-03-07T17:12:07.163Z,23.15
2024-03-07T17:17:28.786Z,13.88
2024-03-07T17:22:49.533Z,22.35
2024-03-07T17:28:10.480Z,23.17
2024-03-07T17:33:31.180Z,17.27
2024-03-07T17:38:51.816Z,15.75
2024-03-07T17:44:18.077Z,18.80
2024-03-07T17:49:41.733Z,15.88
2024-03-07T17:55:02.331Z,14.67
2024-03-07T18:00:28.965Z,16.60
2024-03-07T18:05:54.120Z,20.48
2024-03-07T18:11:15.928Z,18.73
2024-03-07T18:16:38.609Z,19.25
2024-03-07T18:21:59.747Z,19.52
2024-03-07T18:27:21.351Z,24.05
2024-03-07T18:32:42.429Z,17.85
2024-03-07T18:38:03.737Z,14.63
2024-03-07T18:43:24.168Z,19.73
2024-03-07T18:48:44.522Z,17.55
2024-03-07T18:54:08.489Z,19.45
2024-03-07T18:59:29.099Z,22.63
2024-03-07T19:04:49.742Z,23.05
2024-03-07T19:10:18.016Z,21.55
2024-03-07T19:15:38.889Z,21.35
2024-03-07T19:20:59.479Z,21.25
2024-03-07T19:26:21.302Z,20.10
2024-03-07T19:31:41.853Z,23.13
2024-03-07T19:37:02.377Z,22.05
2024-03-07T19:42:23.230Z,29.27
2024-03-07T19:47:44.348Z,17.60
2024-03-07T19:53:14.142Z,22.45
2024-03-07T19:58:34.755Z,20.02
2024-03-07T20:03:55.496Z,19.13
2024-03-07T20:09:18.267Z,27.20
2024-03-07T20:14:40.282Z,21.77
2024-03-07T20:20:00.908Z,18.33
2024-03-07T20:25:22.348Z,22.17
2024-03-07T20:30:45.781Z,20.55
2024-03-07T20:36:09.475Z,24.52
2024-03-07T20:41:31.445Z,27.92
2024-03-07T20:46:52.430Z,24.65
2024-03-07T20:52:12.739Z,23.40
2024-03-07T20:57:34.133Z,19.75
2024-03-07T21:02:57.774Z,21.08
2024-03-07T21:08:19.212Z,20.58
2024-03-07T21:13:40.327Z,18.13
2024-03-07T21:19:01.419Z,21.17
2024-03-07T21:24:22.156Z,17.20
2024-03-07T21:29:42.731Z,23.27
2024-03-07T21:35:06.148Z,21.35
2024-03-07T21:40:26.457Z,25.45
2024-03-07T21:45:47.090Z,21.27
2024-03-07T21:51:11.095Z,26.67
2024-03-07T21:56:31.948Z,27.92
2024-03-07T22:01:52.492Z,23.05
2024-03-07T22:07:16.074Z,27.73
2024-03-07T22:12:37.739Z,22.40
2024-03-07T22:17:58.340Z,18.77
2024-03-07T22:23:18.974Z,26.73
2024-03-07T22:28:39.767Z,22.02
2024-03-07T22:34:00.284Z,25.80
2024-03-07T22:39:20.941Z,29.70
2024-03-07T22:44:43.122Z,22.42
2024-03-07T22:50:13.664Z,32.55
2024-03-07T22:55:44.080Z,23.70
2024-03-07T23:01:05.439Z,27.83
2024-03-07T23:06:35.162Z,17.48
2024-03-07T23:11:56.837Z,29.92
2024-03-07T23:17:18.314Z,23.98
2024-03-07T23:22:38.835Z,26.38
2024-03-07T23:28:01.323Z,23.45
2024-03-07T23:33:22.244Z,19.13
2024-03-07T23:38:42.936Z,23.77
2024-03-07T23:44:03.351Z,21.65
2024-03-07T23:49:25.178Z,22.52
2024-03-07T23:54:46.082Z,21.52
